Terminal Aerodrome Forecast
Issued by NWS

Home | Current Version | Previous Version | Text Only | Print | Product List | Glossary On
Versions: 1 2 3 4 5 6 7 8 9 10 11 12 13
000
FTUS44 KLIX 231700
TAFMCB
TAF
KMCB 231720Z 2318/2418 VRB03KT P6SM SCT030 BKN050
      TEMPO 2320/2324 3SM TSRA BKN040CB
     FM240100 00000KT P6SM FEW025=

USA.gov is the U.S. government's official web portal to all federal, state and local government web resources and services.